Zanzibar, Tanzania

11:05 AM EAT on April 29, 2017 (GMT +0300)
Dar Es Salaam | | Change Station

Elev 180 ft 6.87 °S, 39.20 °E | Updated 1 hour ago

Rain
Rain
79 °F
Feels Like 79 °F
N
14
Wind Variable Wind from South

Today
High -- | Low -- °F
--% Chance of Precip.
Yesterday
High -- | Low -- °F
Precip. -- in
Pressure 30.01 in
Visibility 6.2 miles
Clouds Scattered Clouds 600 ft
Mostly Cloudy 1600 ft
Dew Point 75 °F
Humidity 89%
Rainfall 0.00 in
Snow Depth Not available.
6:22 AM 6:16 PM
Waxing Crescent, 12% visible
METAR HTDA 290700Z 17012KT 9999 SCT006 BKN016 26/24 Q1016 NOSIG
Pressure 30.01 in
Visibility 6.2 miles
Clouds Scattered Clouds 600 ft
Mostly Cloudy 1600 ft
Dew Point 75 °F
Humidity 89%
Rainfall 0.00 in
Snow Depth Not available.
6:22 AM 6:16 PM
Waxing Crescent, 12% visible
METAR HTDA 290700Z 17012KT 9999 SCT006 BKN016 26/24 Q1016 NOSIG

Get Severe Weather Alerts

Thanks for signing up!

Be on the lookout for a verification email in your inbox.

You'll start receiving the daily forecast at 8 AM.

×

10-Day Weather Forecast

No radar image for this location.
×

Almanac

Astronomy

Apr. 29, 2017 Rise Set
Actual Time
Civil Twilight
Nautical Twilight
Astronomical Twilight
Moon
Length of Visible Light
Length of Day
Tomorrow will be .
, % of the Moon is Illuminated

Today's Extremes

Country Highs Country Lows

Community

WunderPhotos

WunderBlog® & News

Nearby

Air Quality

  Air Quality AQ Index Pollutant
Not available.

Snow Depth

Station Depth Elevation

Earthquake Activity

City Distance Mag. Time & Date
Minimum magnitude displayed is 2.5.

Coastal Water Temperatures

Place Temperature

Stations

Nearby Weather Stations

Station Location Temp. Windchill Dew Point Humidity Wind Precip. Elev Updated Type